sensor_id;sensor_type;location;lat;lon;timestamp;P1;durP1;ratioP1;P2;durP2;ratioP2
71566;SDS011;59403;47.456;19.120;2022-10-16T00:01:38;12.13;;;7.28;;
71566;SDS011;59403;47.456;19.120;2022-10-16T00:04:05;11.15;;;7.87;;
71566;SDS011;59403;47.456;19.120;2022-10-16T00:06:33;17.15;;;8.07;;
71566;SDS011;59403;47.456;19.120;2022-10-16T00:09:00;11.63;;;6.55;;
71566;SDS011;59403;47.456;19.120;2022-10-16T00:11:27;10.77;;;7.00;;
71566;SDS011;59403;47.456;19.120;2022-10-16T00:13:58;11.15;;;7.22;;
71566;SDS011;59403;47.456;19.120;2022-10-16T00:16:27;11.75;;;7.00;;
71566;SDS011;59403;47.456;19.120;2022-10-16T00:18:55;10.30;;;7.30;;
71566;SDS011;59403;47.456;19.120;2022-10-16T00:21:23;10.05;;;7.75;;
71566;SDS011;59403;47.456;19.120;2022-10-16T00:23:53;12.43;;;6.97;;
71566;SDS011;59403;47.456;19.120;2022-10-16T00:26:22;10.90;;;6.32;;
71566;SDS011;59403;47.456;19.120;2022-10-16T00:28:49;10.40;;;6.87;;
71566;SDS011;59403;47.456;19.120;2022-10-16T00:31:18;8.82;;;5.93;;
71566;SDS011;59403;47.456;19.120;2022-10-16T00:33:46;9.10;;;6.20;;
71566;SDS011;59403;47.456;19.120;2022-10-16T00:36:14;10.73;;;6.50;;
71566;SDS011;59403;47.456;19.120;2022-10-16T00:38:42;11.25;;;7.35;;
71566;SDS011;59403;47.456;19.120;2022-10-16T00:41:11;12.98;;;6.80;;
71566;SDS011;59403;47.456;19.120;2022-10-16T00:43:40;11.60;;;7.15;;
71566;SDS011;59403;47.456;19.120;2022-10-16T00:46:15;11.05;;;5.53;;
71566;SDS011;59403;47.456;19.120;2022-10-16T00:48:46;12.43;;;6.57;;
71566;SDS011;59403;47.456;19.120;2022-10-16T00:51:18;10.27;;;6.28;;
71566;SDS011;59403;47.456;19.120;2022-10-16T00:53:47;9.27;;;6.07;;
71566;SDS011;59403;47.456;19.120;2022-10-16T00:56:17;11.90;;;6.80;;
71566;SDS011;59403;47.456;19.120;2022-10-16T00:58:44;9.13;;;5.87;;
71566;SDS011;59403;47.456;19.120;2022-10-16T01:01:11;10.18;;;5.75;;
71566;SDS011;59403;47.456;19.120;2022-10-16T01:03:38;8.38;;;5.40;;
71566;SDS011;59403;47.456;19.120;2022-10-16T01:06:08;7.68;;;5.35;;
71566;SDS011;59403;47.456;19.120;2022-10-16T01:08:52;16.62;;;6.45;;
71566;SDS011;59403;47.456;19.120;2022-10-16T01:11:30;10.18;;;6.50;;
71566;SDS011;59403;47.456;19.120;2022-10-16T01:14:02;9.75;;;6.07;;
71566;SDS011;59403;47.456;19.120;2022-10-16T01:16:38;8.93;;;6.00;;
71566;SDS011;59403;47.456;19.120;2022-10-16T01:19:12;12.55;;;6.30;;
71566;SDS011;59403;47.456;19.120;2022-10-16T01:21:43;12.15;;;6.25;;
71566;SDS011;59403;47.456;19.120;2022-10-16T01:24:16;10.60;;;5.87;;
71566;SDS011;59403;47.456;19.120;2022-10-16T01:29:42;8.80;;;5.75;;
71566;SDS011;59403;47.456;19.120;2022-10-16T01:32:16;10.68;;;6.47;;
71566;SDS011;59403;47.456;19.120;2022-10-16T01:34:49;12.00;;;6.62;;
71566;SDS011;59403;47.456;19.120;2022-10-16T01:37:23;10.57;;;5.90;;
71566;SDS011;59403;47.456;19.120;2022-10-16T01:39:57;10.75;;;6.18;;
71566;SDS011;59403;47.456;19.120;2022-10-16T01:42:28;11.60;;;6.53;;
71566;SDS011;59403;47.456;19.120;2022-10-16T01:44:59;9.48;;;6.22;;
71566;SDS011;59403;47.456;19.120;2022-10-16T01:47:28;14.32;;;6.12;;
71566;SDS011;59403;47.456;19.120;2022-10-16T01:49:58;10.65;;;6.45;;
71566;SDS011;59403;47.456;19.120;2022-10-16T01:52:27;12.57;;;6.35;;
71566;SDS011;59403;47.456;19.120;2022-10-16T01:54:56;10.80;;;6.60;;
71566;SDS011;59403;47.456;19.120;2022-10-16T01:57:25;9.57;;;6.50;;
71566;SDS011;59403;47.456;19.120;2022-10-16T01:59:56;10.55;;;6.78;;
71566;SDS011;59403;47.456;19.120;2022-10-16T02:05:22;10.55;;;6.85;;
71566;SDS011;59403;47.456;19.120;2022-10-16T02:08:00;10.52;;;6.50;;
71566;SDS011;59403;47.456;19.120;2022-10-16T02:10:30;11.90;;;7.18;;
71566;SDS011;59403;47.456;19.120;2022-10-16T02:12:57;11.90;;;7.65;;
71566;SDS011;59403;47.456;19.120;2022-10-16T02:15:29;9.77;;;7.90;;
71566;SDS011;59403;47.456;19.120;2022-10-16T02:17:56;13.15;;;8.23;;
71566;SDS011;59403;47.456;19.120;2022-10-16T02:20:27;10.63;;;7.43;;
71566;SDS011;59403;47.456;19.120;2022-10-16T02:22:59;12.10;;;7.30;;
71566;SDS011;59403;47.456;19.120;2022-10-16T02:25:30;10.50;;;7.22;;
71566;SDS011;59403;47.456;19.120;2022-10-16T02:28:02;10.95;;;7.10;;
71566;SDS011;59403;47.456;19.120;2022-10-16T02:30:34;11.38;;;7.45;;
71566;SDS011;59403;47.456;19.120;2022-10-16T02:33:07;15.20;;;7.12;;
71566;SDS011;59403;47.456;19.120;2022-10-16T02:35:36;13.27;;;7.32;;
71566;SDS011;59403;47.456;19.120;2022-10-16T02:38:04;11.12;;;7.57;;
71566;SDS011;59403;47.456;19.120;2022-10-16T02:40:33;10.20;;;6.87;;
71566;SDS011;59403;47.456;19.120;2022-10-16T02:43:00;10.27;;;7.10;;
71566;SDS011;59403;47.456;19.120;2022-10-16T02:45:30;12.50;;;7.20;;
71566;SDS011;59403;47.456;19.120;2022-10-16T02:48:00;10.23;;;6.78;;
71566;SDS011;59403;47.456;19.120;2022-10-16T02:50:27;12.57;;;7.40;;
71566;SDS011;59403;47.456;19.120;2022-10-16T02:52:54;9.90;;;6.70;;
71566;SDS011;59403;47.456;19.120;2022-10-16T02:55:21;10.52;;;7.05;;
71566;SDS011;59403;47.456;19.120;2022-10-16T02:57:48;10.30;;;7.37;;
71566;SDS011;59403;47.456;19.120;2022-10-16T03:00:15;11.27;;;7.05;;
71566;SDS011;59403;47.456;19.120;2022-10-16T03:02:43;10.32;;;6.93;;
71566;SDS011;59403;47.456;19.120;2022-10-16T03:05:13;11.05;;;6.87;;
71566;SDS011;59403;47.456;19.120;2022-10-16T03:07:40;9.57;;;6.53;;
71566;SDS011;59403;47.456;19.120;2022-10-16T03:10:07;18.67;;;7.15;;
71566;SDS011;59403;47.456;19.120;2022-10-16T03:12:34;11.30;;;6.70;;
71566;SDS011;59403;47.456;19.120;2022-10-16T03:15:01;11.65;;;6.82;;
71566;SDS011;59403;47.456;19.120;2022-10-16T03:17:28;10.63;;;7.37;;
71566;SDS011;59403;47.456;19.120;2022-10-16T03:19:54;10.45;;;6.37;;
71566;SDS011;59403;47.456;19.120;2022-10-16T03:22:23;11.70;;;7.25;;
71566;SDS011;59403;47.456;19.120;2022-10-16T03:24:50;10.90;;;6.70;;
71566;SDS011;59403;47.456;19.120;2022-10-16T03:27:18;10.75;;;7.22;;
71566;SDS011;59403;47.456;19.120;2022-10-16T03:29:45;9.50;;;6.90;;
71566;SDS011;59403;47.456;19.120;2022-10-16T03:32:12;10.40;;;7.10;;
71566;SDS011;59403;47.456;19.120;2022-10-16T03:34:38;16.40;;;7.18;;
71566;SDS011;59403;47.456;19.120;2022-10-16T03:37:05;12.10;;;6.70;;
71566;SDS011;59403;47.456;19.120;2022-10-16T03:39:34;10.27;;;7.32;;
71566;SDS011;59403;47.456;19.120;2022-10-16T03:42:00;8.90;;;6.82;;
71566;SDS011;59403;47.456;19.120;2022-10-16T03:44:27;10.68;;;7.40;;
71566;SDS011;59403;47.456;19.120;2022-10-16T03:46:54;13.48;;;7.57;;
71566;SDS011;59403;47.456;19.120;2022-10-16T03:49:21;10.90;;;6.80;;
71566;SDS011;59403;47.456;19.120;2022-10-16T03:51:48;11.82;;;7.95;;
71566;SDS011;59403;47.456;19.120;2022-10-16T03:54:15;12.05;;;7.03;;
71566;SDS011;59403;47.456;19.120;2022-10-16T03:56:43;12.35;;;7.15;;
71566;SDS011;59403;47.456;19.120;2022-10-16T03:59:10;9.63;;;6.82;;
71566;SDS011;59403;47.456;19.120;2022-10-16T04:01:37;12.40;;;7.10;;
71566;SDS011;59403;47.456;19.120;2022-10-16T04:04:04;11.48;;;7.65;;
71566;SDS011;59403;47.456;19.120;2022-10-16T04:06:31;12.40;;;7.05;;
71566;SDS011;59403;47.456;19.120;2022-10-16T04:08:58;12.27;;;6.87;;
71566;SDS011;59403;47.456;19.120;2022-10-16T04:11:24;11.57;;;7.12;;
71566;SDS011;59403;47.456;19.120;2022-10-16T04:13:52;11.52;;;7.32;;
71566;SDS011;59403;47.456;19.120;2022-10-16T04:16:19;12.77;;;7.45;;
71566;SDS011;59403;47.456;19.120;2022-10-16T04:18:46;11.63;;;6.87;;
71566;SDS011;59403;47.456;19.120;2022-10-16T04:21:13;12.65;;;6.80;;
71566;SDS011;59403;47.456;19.120;2022-10-16T04:23:40;11.70;;;7.60;;
71566;SDS011;59403;47.456;19.120;2022-10-16T04:26:08;12.90;;;7.35;;
71566;SDS011;59403;47.456;19.120;2022-10-16T04:28:35;11.90;;;7.03;;
71566;SDS011;59403;47.456;19.120;2022-10-16T04:31:04;14.50;;;7.35;;
71566;SDS011;59403;47.456;19.120;2022-10-16T04:33:31;12.98;;;6.93;;
71566;SDS011;59403;47.456;19.120;2022-10-16T04:35:59;12.20;;;6.95;;
71566;SDS011;59403;47.456;19.120;2022-10-16T04:38:27;14.95;;;7.22;;
71566;SDS011;59403;47.456;19.120;2022-10-16T04:40:54;13.30;;;7.75;;
71566;SDS011;59403;47.456;19.120;2022-10-16T04:43:21;13.70;;;6.62;;
71566;SDS011;59403;47.456;19.120;2022-10-16T04:45:49;12.75;;;7.43;;
71566;SDS011;59403;47.456;19.120;2022-10-16T04:48:18;11.48;;;7.37;;
71566;SDS011;59403;47.456;19.120;2022-10-16T04:50:45;12.45;;;7.72;;
71566;SDS011;59403;47.456;19.120;2022-10-16T04:53:11;13.82;;;7.82;;
71566;SDS011;59403;47.456;19.120;2022-10-16T04:55:38;12.02;;;7.00;;
71566;SDS011;59403;47.456;19.120;2022-10-16T04:58:06;14.45;;;7.32;;
71566;SDS011;59403;47.456;19.120;2022-10-16T05:00:33;12.37;;;7.07;;
71566;SDS011;59403;47.456;19.120;2022-10-16T05:03:01;18.67;;;7.55;;
71566;SDS011;59403;47.456;19.120;2022-10-16T05:05:33;12.48;;;6.95;;
71566;SDS011;59403;47.456;19.120;2022-10-16T05:08:01;14.60;;;7.28;;
71566;SDS011;59403;47.456;19.120;2022-10-16T05:10:28;16.40;;;7.47;;
71566;SDS011;59403;47.456;19.120;2022-10-16T05:12:55;13.35;;;7.20;;
71566;SDS011;59403;47.456;19.120;2022-10-16T05:15:21;12.68;;;7.28;;
71566;SDS011;59403;47.456;19.120;2022-10-16T05:17:51;17.48;;;7.95;;
71566;SDS011;59403;47.456;19.120;2022-10-16T05:20:19;15.15;;;7.50;;
71566;SDS011;59403;47.456;19.120;2022-10-16T05:25:15;16.15;;;7.87;;
71566;SDS011;59403;47.456;19.120;2022-10-16T05:27:41;15.43;;;8.45;;
71566;SDS011;59403;47.456;19.120;2022-10-16T05:30:09;15.65;;;8.15;;
71566;SDS011;59403;47.456;19.120;2022-10-16T05:32:36;13.18;;;7.25;;
71566;SDS011;59403;47.456;19.120;2022-10-16T05:35:03;15.02;;;7.80;;
71566;SDS011;59403;47.456;19.120;2022-10-16T05:37:30;25.98;;;8.75;;
71566;SDS011;59403;47.456;19.120;2022-10-16T05:39:57;15.85;;;8.10;;
71566;SDS011;59403;47.456;19.120;2022-10-16T05:42:27;13.45;;;7.35;;
71566;SDS011;59403;47.456;19.120;2022-10-16T05:44:54;15.23;;;7.47;;
71566;SDS011;59403;47.456;19.120;2022-10-16T05:47:20;15.75;;;7.70;;
71566;SDS011;59403;47.456;19.120;2022-10-16T05:49:47;16.45;;;7.70;;
71566;SDS011;59403;47.456;19.120;2022-10-16T05:52:14;14.32;;;7.97;;
71566;SDS011;59403;47.456;19.120;2022-10-16T05:54:41;14.43;;;8.52;;
71566;SDS011;59403;47.456;19.120;2022-10-16T05:57:08;14.93;;;7.82;;
71566;SDS011;59403;47.456;19.120;2022-10-16T05:59:36;12.70;;;7.78;;
71566;SDS011;59403;47.456;19.120;2022-10-16T06:02:03;13.10;;;7.35;;
71566;SDS011;59403;47.456;19.120;2022-10-16T06:04:30;12.20;;;7.70;;
71566;SDS011;59403;47.456;19.120;2022-10-16T06:06:57;15.50;;;8.73;;
71566;SDS011;59403;47.456;19.120;2022-10-16T06:09:26;15.23;;;9.73;;
71566;SDS011;59403;47.456;19.120;2022-10-16T06:11:53;13.85;;;8.15;;
71566;SDS011;59403;47.456;19.120;2022-10-16T06:14:20;13.73;;;7.90;;
71566;SDS011;59403;47.456;19.120;2022-10-16T06:16:48;14.52;;;8.25;;
71566;SDS011;59403;47.456;19.120;2022-10-16T06:19:15;11.32;;;7.53;;
71566;SDS011;59403;47.456;19.120;2022-10-16T06:21:42;13.40;;;7.70;;
71566;SDS011;59403;47.456;19.120;2022-10-16T06:24:09;13.57;;;7.78;;
71566;SDS011;59403;47.456;19.120;2022-10-16T06:26:36;13.52;;;8.07;;
71566;SDS011;59403;47.456;19.120;2022-10-16T06:29:04;11.20;;;8.00;;
71566;SDS011;59403;47.456;19.120;2022-10-16T06:31:31;12.23;;;7.47;;
71566;SDS011;59403;47.456;19.120;2022-10-16T06:34:00;13.98;;;8.23;;
71566;SDS011;59403;47.456;19.120;2022-10-16T06:36:27;13.13;;;8.55;;
71566;SDS011;59403;47.456;19.120;2022-10-16T06:38:55;11.75;;;7.53;;
71566;SDS011;59403;47.456;19.120;2022-10-16T06:41:22;12.73;;;7.35;;
71566;SDS011;59403;47.456;19.120;2022-10-16T06:43:49;16.48;;;7.45;;
71566;SDS011;59403;47.456;19.120;2022-10-16T06:46:18;14.55;;;7.90;;
71566;SDS011;59403;47.456;19.120;2022-10-16T06:48:47;13.05;;;7.80;;
71566;SDS011;59403;47.456;19.120;2022-10-16T06:51:16;11.15;;;6.62;;
71566;SDS011;59403;47.456;19.120;2022-10-16T06:53:44;11.15;;;7.93;;
71566;SDS011;59403;47.456;19.120;2022-10-16T06:56:14;12.77;;;7.75;;
71566;SDS011;59403;47.456;19.120;2022-10-16T06:58:42;12.15;;;7.43;;
71566;SDS011;59403;47.456;19.120;2022-10-16T07:01:10;12.45;;;7.70;;
71566;SDS011;59403;47.456;19.120;2022-10-16T07:03:38;11.77;;;6.90;;
71566;SDS011;59403;47.456;19.120;2022-10-16T07:06:06;9.35;;;6.95;;
71566;SDS011;59403;47.456;19.120;2022-10-16T07:08:35;11.55;;;7.18;;
71566;SDS011;59403;47.456;19.120;2022-10-16T07:11:04;10.98;;;7.05;;
71566;SDS011;59403;47.456;19.120;2022-10-16T07:13:33;11.25;;;7.53;;
71566;SDS011;59403;47.456;19.120;2022-10-16T07:16:03;12.48;;;7.20;;
71566;SDS011;59403;47.456;19.120;2022-10-16T07:18:30;14.15;;;7.62;;
71566;SDS011;59403;47.456;19.120;2022-10-16T07:21:02;12.43;;;8.00;;
71566;SDS011;59403;47.456;19.120;2022-10-16T07:23:29;13.00;;;7.55;;
71566;SDS011;59403;47.456;19.120;2022-10-16T07:25:58;11.40;;;7.75;;
71566;SDS011;59403;47.456;19.120;2022-10-16T07:28:25;12.27;;;8.07;;
71566;SDS011;59403;47.456;19.120;2022-10-16T07:30:51;11.75;;;7.90;;
71566;SDS011;59403;47.456;19.120;2022-10-16T07:33:18;14.27;;;7.70;;
71566;SDS011;59403;47.456;19.120;2022-10-16T07:35:49;14.27;;;7.53;;
71566;SDS011;59403;47.456;19.120;2022-10-16T07:40:44;11.73;;;8.02;;
71566;SDS011;59403;47.456;19.120;2022-10-16T07:43:12;11.70;;;7.55;;
71566;SDS011;59403;47.456;19.120;2022-10-16T07:45:46;11.70;;;7.78;;
71566;SDS011;59403;47.456;19.120;2022-10-16T07:48:14;12.57;;;7.60;;
71566;SDS011;59403;47.456;19.120;2022-10-16T07:50:41;14.07;;;8.13;;
71566;SDS011;59403;47.456;19.120;2022-10-16T07:53:09;13.85;;;8.07;;
71566;SDS011;59403;47.456;19.120;2022-10-16T07:55:36;13.18;;;7.78;;
71566;SDS011;59403;47.456;19.120;2022-10-16T07:58:03;14.70;;;8.05;;
71566;SDS011;59403;47.456;19.120;2022-10-16T08:00:31;11.95;;;7.47;;
71566;SDS011;59403;47.456;19.120;2022-10-16T08:02:58;12.32;;;8.00;;
71566;SDS011;59403;47.456;19.120;2022-10-16T08:05:26;14.40;;;8.65;;
71566;SDS011;59403;47.456;19.120;2022-10-16T08:07:53;14.93;;;8.07;;
71566;SDS011;59403;47.456;19.120;2022-10-16T08:10:21;13.75;;;7.45;;
71566;SDS011;59403;47.456;19.120;2022-10-16T08:12:49;13.05;;;7.93;;
71566;SDS011;59403;47.456;19.120;2022-10-16T08:15:18;14.48;;;7.65;;
71566;SDS011;59403;47.456;19.120;2022-10-16T08:17:56;10.82;;;7.37;;
71566;SDS011;59403;47.456;19.120;2022-10-16T08:20:24;10.70;;;7.68;;
71566;SDS011;59403;47.456;19.120;2022-10-16T08:22:52;13.65;;;8.18;;
71566;SDS011;59403;47.456;19.120;2022-10-16T08:25:19;11.95;;;7.65;;
71566;SDS011;59403;47.456;19.120;2022-10-16T08:27:52;11.75;;;7.53;;
71566;SDS011;59403;47.456;19.120;2022-10-16T08:30:19;13.93;;;7.37;;
71566;SDS011;59403;47.456;19.120;2022-10-16T08:32:47;17.48;;;8.90;;
71566;SDS011;59403;47.456;19.120;2022-10-16T08:35:15;10.57;;;7.57;;
71566;SDS011;59403;47.456;19.120;2022-10-16T08:37:43;13.60;;;8.52;;
71566;SDS011;59403;47.456;19.120;2022-10-16T08:40:13;12.55;;;8.20;;
71566;SDS011;59403;47.456;19.120;2022-10-16T08:46:06;12.65;;;7.60;;
71566;SDS011;59403;47.456;19.120;2022-10-16T08:48:45;12.52;;;8.18;;
71566;SDS011;59403;47.456;19.120;2022-10-16T08:51:19;13.55;;;7.43;;
71566;SDS011;59403;47.456;19.120;2022-10-16T08:56:17;11.55;;;7.93;;
71566;SDS011;59403;47.456;19.120;2022-10-16T08:58:44;14.52;;;8.43;;
71566;SDS011;59403;47.456;19.120;2022-10-16T09:01:13;13.65;;;7.72;;
71566;SDS011;59403;47.456;19.120;2022-10-16T09:03:48;12.73;;;8.02;;
71566;SDS011;59403;47.456;19.120;2022-10-16T09:06:34;12.68;;;7.07;;
71566;SDS011;59403;47.456;19.120;2022-10-16T09:09:19;12.05;;;8.15;;
71566;SDS011;59403;47.456;19.120;2022-10-16T09:12:08;11.27;;;8.00;;
71566;SDS011;59403;47.456;19.120;2022-10-16T09:14:48;12.85;;;8.20;;
71566;SDS011;59403;47.456;19.120;2022-10-16T09:20:14;11.68;;;8.15;;
71566;SDS011;59403;47.456;19.120;2022-10-16T09:22:47;11.93;;;8.27;;
71566;SDS011;59403;47.456;19.120;2022-10-16T09:25:15;11.43;;;8.35;;
71566;SDS011;59403;47.456;19.120;2022-10-16T09:27:44;14.75;;;8.15;;
71566;SDS011;59403;47.456;19.120;2022-10-16T09:30:14;11.25;;;8.13;;
71566;SDS011;59403;47.456;19.120;2022-10-16T09:32:44;11.82;;;7.80;;
71566;SDS011;59403;47.456;19.120;2022-10-16T09:35:14;15.95;;;8.93;;
71566;SDS011;59403;47.456;19.120;2022-10-16T09:37:44;11.10;;;8.07;;
71566;SDS011;59403;47.456;19.120;2022-10-16T09:40:24;13.90;;;9.10;;
71566;SDS011;59403;47.456;19.120;2022-10-16T09:42:53;21.73;;;8.30;;
71566;SDS011;59403;47.456;19.120;2022-10-16T09:45:27;11.02;;;7.95;;
71566;SDS011;59403;47.456;19.120;2022-10-16T09:47:54;11.85;;;7.65;;
71566;SDS011;59403;47.456;19.120;2022-10-16T09:50:22;11.00;;;7.12;;
71566;SDS011;59403;47.456;19.120;2022-10-16T09:53:01;13.98;;;7.43;;
71566;SDS011;59403;47.456;19.120;2022-10-16T09:55:30;13.38;;;8.02;;
71566;SDS011;59403;47.456;19.120;2022-10-16T09:57:58;11.45;;;7.85;;
71566;SDS011;59403;47.456;19.120;2022-10-16T10:00:25;12.63;;;7.30;;
71566;SDS011;59403;47.456;19.120;2022-10-16T10:02:52;9.57;;;6.82;;
71566;SDS011;59403;47.456;19.120;2022-10-16T10:05:21;11.02;;;7.53;;
71566;SDS011;59403;47.456;19.120;2022-10-16T10:07:56;14.50;;;7.82;;
71566;SDS011;59403;47.456;19.120;2022-10-16T10:10:25;13.95;;;7.43;;
71566;SDS011;59403;47.456;19.120;2022-10-16T10:12:53;10.40;;;7.43;;
71566;SDS011;59403;47.456;19.120;2022-10-16T10:15:20;11.12;;;7.65;;
71566;SDS011;59403;47.456;19.120;2022-10-16T10:17:49;11.10;;;6.75;;
71566;SDS011;59403;47.456;19.120;2022-10-16T10:20:25;12.03;;;7.20;;
71566;SDS011;59403;47.456;19.120;2022-10-16T10:22:53;9.43;;;6.75;;
71566;SDS011;59403;47.456;19.120;2022-10-16T10:25:39;8.15;;;5.97;;
71566;SDS011;59403;47.456;19.120;2022-10-16T10:28:24;9.25;;;6.00;;
71566;SDS011;59403;47.456;19.120;2022-10-16T10:31:00;9.38;;;6.10;;
71566;SDS011;59403;47.456;19.120;2022-10-16T10:33:36;10.97;;;6.73;;
71566;SDS011;59403;47.456;19.120;2022-10-16T10:36:12;8.75;;;5.97;;
71566;SDS011;59403;47.456;19.120;2022-10-16T10:38:49;8.55;;;5.80;;
71566;SDS011;59403;47.456;19.120;2022-10-16T10:44:19;9.18;;;6.10;;
71566;SDS011;59403;47.456;19.120;2022-10-16T10:46:57;10.70;;;6.10;;
71566;SDS011;59403;47.456;19.120;2022-10-16T10:49:37;10.70;;;5.97;;
71566;SDS011;59403;47.456;19.120;2022-10-16T10:52:13;8.73;;;5.68;;
71566;SDS011;59403;47.456;19.120;2022-10-16T10:54:59;11.68;;;6.37;;
71566;SDS011;59403;47.456;19.120;2022-10-16T10:57:37;8.90;;;5.70;;
71566;SDS011;59403;47.456;19.120;2022-10-16T11:00:14;8.23;;;5.60;;
71566;SDS011;59403;47.456;19.120;2022-10-16T11:02:48;8.43;;;6.00;;
71566;SDS011;59403;47.456;19.120;2022-10-16T11:05:28;8.85;;;5.40;;
71566;SDS011;59403;47.456;19.120;2022-10-16T11:08:06;8.52;;;5.32;;
71566;SDS011;59403;47.456;19.120;2022-10-16T11:10:41;7.93;;;5.18;;
71566;SDS011;59403;47.456;19.120;2022-10-16T11:13:21;7.10;;;5.60;;
71566;SDS011;59403;47.456;19.120;2022-10-16T11:15:57;11.55;;;5.37;;
71566;SDS011;59403;47.456;19.120;2022-10-16T11:18:27;8.40;;;5.50;;
71566;SDS011;59403;47.456;19.120;2022-10-16T11:21:01;7.80;;;5.45;;
71566;SDS011;59403;47.456;19.120;2022-10-16T11:23:34;8.27;;;5.32;;
71566;SDS011;59403;47.456;19.120;2022-10-16T11:26:11;7.90;;;5.40;;
71566;SDS011;59403;47.456;19.120;2022-10-16T11:28:45;13.20;;;5.62;;
71566;SDS011;59403;47.456;19.120;2022-10-16T11:31:16;7.68;;;4.50;;
71566;SDS011;59403;47.456;19.120;2022-10-16T11:33:49;9.00;;;5.43;;
71566;SDS011;59403;47.456;19.120;2022-10-16T11:36:21;10.18;;;5.60;;
71566;SDS011;59403;47.456;19.120;2022-10-16T11:38:52;8.23;;;5.50;;
71566;SDS011;59403;47.456;19.120;2022-10-16T11:41:28;8.73;;;4.87;;
71566;SDS011;59403;47.456;19.120;2022-10-16T11:44:11;8.70;;;5.30;;
71566;SDS011;59403;47.456;19.120;2022-10-16T11:46:46;9.30;;;5.47;;
71566;SDS011;59403;47.456;19.120;2022-10-16T11:49:18;9.43;;;5.40;;
71566;SDS011;59403;47.456;19.120;2022-10-16T11:51:51;5.93;;;4.93;;
71566;SDS011;59403;47.456;19.120;2022-10-16T11:54:24;7.75;;;4.97;;
71566;SDS011;59403;47.456;19.120;2022-10-16T11:57:01;15.60;;;5.03;;
71566;SDS011;59403;47.456;19.120;2022-10-16T11:59:36;9.02;;;4.68;;
71566;SDS011;59403;47.456;19.120;2022-10-16T12:02:25;10.32;;;4.68;;
71566;SDS011;59403;47.456;19.120;2022-10-16T12:05:06;6.60;;;4.43;;
71566;SDS011;59403;47.456;19.120;2022-10-16T12:07:41;7.72;;;4.82;;
71566;SDS011;59403;47.456;19.120;2022-10-16T12:10:19;6.80;;;4.35;;
71566;SDS011;59403;47.456;19.120;2022-10-16T12:12:48;8.07;;;5.22;;
71566;SDS011;59403;47.456;19.120;2022-10-16T12:15:19;6.95;;;4.82;;
71566;SDS011;59403;47.456;19.120;2022-10-16T12:17:49;7.57;;;4.40;;
71566;SDS011;59403;47.456;19.120;2022-10-16T12:23:03;9.45;;;4.70;;
71566;SDS011;59403;47.456;19.120;2022-10-16T12:25:32;6.95;;;4.87;;
71566;SDS011;59403;47.456;19.120;2022-10-16T12:28:03;8.00;;;4.50;;
71566;SDS011;59403;47.456;19.120;2022-10-16T12:30:32;6.37;;;4.87;;
71566;SDS011;59403;47.456;19.120;2022-10-16T12:33:02;6.30;;;4.47;;
71566;SDS011;59403;47.456;19.120;2022-10-16T12:35:31;8.82;;;4.03;;
71566;SDS011;59403;47.456;19.120;2022-10-16T12:38:11;6.45;;;4.50;;
71566;SDS011;59403;47.456;19.120;2022-10-16T12:40:43;6.93;;;4.32;;
71566;SDS011;59403;47.456;19.120;2022-10-16T12:43:23;7.63;;;4.43;;
71566;SDS011;59403;47.456;19.120;2022-10-16T12:46:03;5.70;;;4.65;;
71566;SDS011;59403;47.456;19.120;2022-10-16T12:48:45;6.07;;;4.28;;
71566;SDS011;59403;47.456;19.120;2022-10-16T12:51:20;5.82;;;4.28;;
71566;SDS011;59403;47.456;19.120;2022-10-16T12:53:57;7.87;;;4.22;;
71566;SDS011;59403;47.456;19.120;2022-10-16T12:56:27;7.43;;;4.40;;
71566;SDS011;59403;47.456;19.120;2022-10-16T12:59:08;6.30;;;4.32;;
71566;SDS011;59403;47.456;19.120;2022-10-16T13:01:48;7.05;;;4.40;;
71566;SDS011;59403;47.456;19.120;2022-10-16T13:04:31;8.30;;;4.47;;
71566;SDS011;59403;47.456;19.120;2022-10-16T13:07:27;7.62;;;4.07;;
71566;SDS011;59403;47.456;19.120;2022-10-16T13:10:16;6.07;;;3.80;;
71566;SDS011;59403;47.456;19.120;2022-10-16T13:13:02;6.03;;;3.90;;
71566;SDS011;59403;47.456;19.120;2022-10-16T13:15:44;5.75;;;3.78;;
71566;SDS011;59403;47.456;19.120;2022-10-16T13:18:19;9.90;;;5.28;;
71566;SDS011;59403;47.456;19.120;2022-10-16T13:20:55;6.03;;;3.85;;
71566;SDS011;59403;47.456;19.120;2022-10-16T13:23:31;5.37;;;3.90;;
71566;SDS011;59403;47.456;19.120;2022-10-16T13:26:08;6.90;;;4.12;;
71566;SDS011;59403;47.456;19.120;2022-10-16T13:28:42;6.53;;;4.20;;
71566;SDS011;59403;47.456;19.120;2022-10-16T13:31:12;6.75;;;4.20;;
71566;SDS011;59403;47.456;19.120;2022-10-16T13:33:45;5.93;;;3.92;;
71566;SDS011;59403;47.456;19.120;2022-10-16T13:36:19;7.63;;;4.17;;
71566;SDS011;59403;47.456;19.120;2022-10-16T13:38:47;5.75;;;4.53;;
71566;SDS011;59403;47.456;19.120;2022-10-16T13:41:15;9.18;;;3.95;;
71566;SDS011;59403;47.456;19.120;2022-10-16T13:43:44;7.18;;;4.03;;
71566;SDS011;59403;47.456;19.120;2022-10-16T13:46:15;5.93;;;4.10;;
71566;SDS011;59403;47.456;19.120;2022-10-16T13:48:43;7.30;;;4.47;;
71566;SDS011;59403;47.456;19.120;2022-10-16T13:51:12;5.62;;;3.70;;
71566;SDS011;59403;47.456;19.120;2022-10-16T13:53:40;7.43;;;3.70;;
71566;SDS011;59403;47.456;19.120;2022-10-16T13:56:10;5.70;;;4.10;;
71566;SDS011;59403;47.456;19.120;2022-10-16T13:58:39;8.35;;;4.30;;
71566;SDS011;59403;47.456;19.120;2022-10-16T14:01:15;5.50;;;3.63;;
71566;SDS011;59403;47.456;19.120;2022-10-16T14:03:47;6.30;;;3.85;;
71566;SDS011;59403;47.456;19.120;2022-10-16T14:06:16;6.70;;;4.10;;
71566;SDS011;59403;47.456;19.120;2022-10-16T14:08:48;6.65;;;4.25;;
71566;SDS011;59403;47.456;19.120;2022-10-16T14:11:20;4.68;;;3.80;;
71566;SDS011;59403;47.456;19.120;2022-10-16T14:13:49;6.63;;;4.10;;
71566;SDS011;59403;47.456;19.120;2022-10-16T14:16:19;6.05;;;3.50;;
71566;SDS011;59403;47.456;19.120;2022-10-16T14:18:50;5.32;;;3.80;;
71566;SDS011;59403;47.456;19.120;2022-10-16T14:21:24;8.93;;;4.35;;
71566;SDS011;59403;47.456;19.120;2022-10-16T14:23:51;6.87;;;3.70;;
71566;SDS011;59403;47.456;19.120;2022-10-16T14:26:20;6.27;;;3.60;;
71566;SDS011;59403;47.456;19.120;2022-10-16T14:28:49;6.82;;;3.60;;
71566;SDS011;59403;47.456;19.120;2022-10-16T14:31:32;5.78;;;3.83;;
71566;SDS011;59403;47.456;19.120;2022-10-16T14:34:01;7.85;;;3.90;;
71566;SDS011;59403;47.456;19.120;2022-10-16T14:36:28;5.68;;;3.90;;
71566;SDS011;59403;47.456;19.120;2022-10-16T14:39:00;6.87;;;4.17;;
71566;SDS011;59403;47.456;19.120;2022-10-16T14:41:29;7.87;;;4.07;;
71566;SDS011;59403;47.456;19.120;2022-10-16T14:43:57;4.82;;;3.97;;
71566;SDS011;59403;47.456;19.120;2022-10-16T14:46:29;6.68;;;3.90;;
71566;SDS011;59403;47.456;19.120;2022-10-16T14:49:02;8.05;;;4.20;;
71566;SDS011;59403;47.456;19.120;2022-10-16T14:51:40;8.23;;;4.90;;
71566;SDS011;59403;47.456;19.120;2022-10-16T14:54:09;5.97;;;4.10;;
71566;SDS011;59403;47.456;19.120;2022-10-16T14:56:42;9.15;;;4.15;;
71566;SDS011;59403;47.456;19.120;2022-10-16T14:59:13;6.65;;;4.10;;
71566;SDS011;59403;47.456;19.120;2022-10-16T15:01:45;7.28;;;4.25;;
71566;SDS011;59403;47.456;19.120;2022-10-16T15:04:12;5.10;;;3.90;;
71566;SDS011;59403;47.456;19.120;2022-10-16T15:06:40;8.30;;;3.92;;
71566;SDS011;59403;47.456;19.120;2022-10-16T15:09:07;5.60;;;3.87;;
71566;SDS011;59403;47.456;19.120;2022-10-16T15:11:34;7.62;;;4.37;;